createdAt,value
2016-05-28T12:07:37.695Z,100833
2016-05-28T12:07:55.976Z,100839
2016-05-28T12:08:13.914Z,100827
2016-05-28T12:08:32.180Z,100824
2016-05-28T12:08:50.430Z,100830
2016-05-28T12:09:08.696Z,100824
2016-05-28T12:09:26.809Z,100818
2016-05-28T12:09:45.075Z,100824
2016-05-28T12:10:03.184Z,100827
2016-05-28T12:10:21.437Z,100830
2016-05-28T12:10:39.546Z,100824
2016-05-28T12:10:57.828Z,100824
2016-05-28T12:11:16.080Z,100816
2016-05-28T12:11:34.345Z,100824
2016-05-28T12:11:52.455Z,100830
2016-05-28T12:12:10.564Z,100827
2016-05-28T12:12:28.832Z,100825
2016-05-28T12:12:47.097Z,100825
2016-05-28T12:13:05.191Z,100816
2016-05-28T12:13:23.461Z,100822
2016-05-28T12:13:41.726Z,100819
2016-05-28T12:13:59.836Z,100816
2016-05-28T12:14:17.947Z,100816
2016-05-28T12:14:36.197Z,100814
2016-05-28T12:14:54.478Z,100819
2016-05-28T12:15:12.744Z,100814
2016-05-28T12:15:30.997Z,100805
2016-05-28T12:15:49.278Z,100811
2016-05-28T12:16:07.528Z,100820
2016-05-28T12:16:25.796Z,100814
2016-05-28T12:16:44.046Z,100823
2016-05-28T12:17:02.311Z,100811
2016-05-28T12:17:20.424Z,100811
2016-05-28T12:17:39.471Z,100817
2016-05-28T12:17:57.736Z,100817
2016-05-28T12:18:15.849Z,100814
2016-05-28T12:18:47.677Z,100815
2016-05-28T12:19:05.942Z,100800
2016-05-28T12:19:24.195Z,100806
2016-05-28T12:19:42.711Z,100809
2016-05-28T12:20:00.742Z,100812
2016-05-28T12:20:19.479Z,100815
2016-05-28T12:20:36.494Z,100804
2016-05-28T12:20:54.604Z,100810
2016-05-28T12:21:12.713Z,100815
2016-05-28T12:21:30.982Z,100804
2016-05-28T12:21:49.263Z,100812
2016-05-28T12:22:07.529Z,100809
2016-05-28T12:22:25.812Z,100818
2016-05-28T12:22:43.906Z,100806
2016-05-28T12:23:02.031Z,100806
2016-05-28T12:23:20.143Z,100815
2016-05-28T12:23:38.268Z,100806
2016-05-28T12:23:56.393Z,100809
2016-05-28T12:24:14.677Z,100818
2016-05-28T12:24:32.927Z,100815
2016-05-28T12:24:51.208Z,100812
2016-05-28T12:25:09.490Z,100820
2016-05-28T12:25:27.774Z,100814
2016-05-28T12:25:46.149Z,100806
2016-05-28T12:26:04.165Z,100809
2016-05-28T12:26:22.448Z,100817
2016-05-28T12:26:40.557Z,100817
2016-05-28T12:26:58.807Z,100823
2016-05-28T12:27:16.935Z,100808
2016-05-28T12:27:35.435Z,100814
2016-05-28T12:27:53.310Z,100814
2016-05-28T12:28:11.420Z,100811
2016-05-28T12:28:29.687Z,100811
2016-05-28T12:28:47.953Z,100814
2016-05-28T12:29:06.234Z,100808
2016-05-28T12:29:24.332Z,100817
2016-05-28T12:29:42.597Z,100817
2016-05-28T12:30:00.863Z,100820
2016-05-28T12:30:18.881Z,100817
2016-05-28T12:30:37.146Z,100808
2016-05-28T12:30:55.256Z,100811
2016-05-28T12:31:13.506Z,100814
2016-05-28T12:31:31.773Z,100820
2016-05-28T12:31:50.039Z,100820
2016-05-28T12:32:08.305Z,100817
2016-05-28T12:32:26.604Z,100811
2016-05-28T12:32:44.714Z,100820
2016-05-28T12:33:02.979Z,100820
2016-05-28T12:33:21.248Z,100823
2016-05-28T12:33:39.514Z,100820
2016-05-28T12:33:57.623Z,100820
2016-05-28T12:34:15.735Z,100823
2016-05-28T12:34:34.001Z,100814
2016-05-28T12:34:52.110Z,100820
2016-05-28T12:35:10.079Z,100814
2016-05-28T12:35:28.034Z,100822
2016-05-28T12:35:46.300Z,100822
2016-05-28T12:36:04.409Z,100820
2016-05-28T12:36:22.679Z,100808
2016-05-28T12:36:40.945Z,100822
2016-05-28T12:36:59.226Z,100811
2016-05-28T12:37:17.478Z,100820
2016-05-28T12:37:40.118Z,100814
2016-05-28T12:37:57.306Z,100811
2016-05-28T12:38:15.575Z,100808
2016-05-28T12:38:33.856Z,100805
2016-05-28T12:38:51.825Z,100811
2016-05-28T12:39:10.090Z,100811
2016-05-28T12:39:28.203Z,100808
2016-05-28T12:39:46.499Z,100811
2016-05-28T12:40:04.765Z,100808
2016-05-28T12:40:23.048Z,100814
2016-05-28T12:40:41.298Z,100811
2016-05-28T12:40:59.423Z,100817
2016-05-28T12:41:17.536Z,100814
2016-05-28T12:41:35.692Z,100814
2016-05-28T12:41:53.817Z,100808
2016-05-28T12:42:11.926Z,100806
2016-05-28T12:42:29.881Z,100803
2016-05-28T12:42:48.335Z,100809
2016-05-28T12:43:06.600Z,100803
2016-05-28T12:43:24.884Z,100809
2016-05-28T12:43:42.978Z,100818
2016-05-28T12:44:01.259Z,100812
2016-05-28T12:44:19.544Z,100806
2016-05-28T12:44:37.809Z,100812
2016-05-28T12:44:56.075Z,100800
2016-05-28T12:45:14.341Z,100798
2016-05-28T12:45:32.608Z,100800
2016-05-28T12:45:50.718Z,100806
2016-05-28T12:46:08.983Z,100801
2016-05-28T12:46:27.268Z,100803
2016-05-28T12:46:45.518Z,100804
2016-05-28T12:47:03.784Z,100798
2016-05-28T12:47:22.052Z,100806
2016-05-28T12:47:40.333Z,100812
2016-05-28T12:47:58.599Z,100798
2016-05-28T12:48:16.866Z,100796
2016-05-28T12:48:35.132Z,100790
2016-05-28T12:48:53.397Z,100796
2016-05-28T12:49:11.663Z,100796
2016-05-28T12:49:29.807Z,100793
2016-05-28T12:49:47.916Z,100793
2016-05-28T12:50:06.025Z,100798
2016-05-28T12:50:23.982Z,100801
2016-05-28T12:50:42.232Z,100793
2016-05-28T12:51:00.341Z,100798
2016-05-28T12:51:18.624Z,100798
2016-05-28T12:51:36.890Z,100798
2016-05-28T12:51:55.155Z,100798
2016-05-28T12:52:13.421Z,100798
2016-05-28T12:52:32.815Z,100787
2016-05-28T12:52:49.846Z,100803
2016-05-28T12:53:08.112Z,100800
2016-05-28T12:53:26.255Z,100790
2016-05-28T12:53:44.505Z,100793
2016-05-28T12:54:02.771Z,100797
2016-05-28T12:54:21.038Z,100787
2016-05-28T12:54:39.320Z,100790
2016-05-28T12:54:57.570Z,100793
2016-05-28T12:55:15.538Z,100790
2016-05-28T12:55:33.823Z,100798
2016-05-28T12:55:52.088Z,100793
2016-05-28T12:56:10.354Z,100790
2016-05-28T12:56:28.638Z,100784
2016-05-28T12:56:46.904Z,100781
2016-05-28T12:57:05.169Z,100790
2016-05-28T12:57:23.265Z,100787
2016-05-28T12:57:41.421Z,100787
2016-05-28T12:57:59.546Z,100787
2016-05-28T12:58:17.799Z,100784
2016-05-28T12:58:36.081Z,100790
2016-05-28T12:58:54.331Z,100781
2016-05-28T12:59:12.596Z,100786
2016-05-28T12:59:30.225Z,100781
2016-05-28T12:59:48.491Z,100789
2016-05-28T13:00:06.616Z,100786
2016-05-28T13:00:24.884Z,100786
2016-05-28T13:00:43.134Z,100781
2016-05-28T13:01:01.149Z,100775
2016-05-28T13:01:19.417Z,100784
2016-05-28T13:01:37.682Z,100789
2016-05-28T13:01:55.932Z,100787
2016-05-28T13:02:14.057Z,100784
2016-05-28T13:02:32.155Z,100784
2016-05-28T13:02:52.030Z,100781
2016-05-28T13:03:10.296Z,100775
2016-05-28T13:03:28.548Z,100781
2016-05-28T13:03:46.813Z,100778
2016-05-28T13:04:05.079Z,100781
2016-05-28T13:04:23.332Z,100775
2016-05-28T13:04:41.457Z,100772
2016-05-28T13:04:59.395Z,100766
2016-05-28T13:05:17.631Z,100772
2016-05-28T13:05:35.693Z,100781
2016-05-28T13:05:53.912Z,100787
2016-05-28T13:06:12.178Z,100781
2016-05-28T13:06:30.446Z,100784
2016-05-28T13:06:48.728Z,100784
2016-05-28T13:07:06.837Z,100778
2016-05-28T13:07:25.090Z,100775
2016-05-28T13:07:43.059Z,100778
2016-05-28T13:08:01.324Z,100781
2016-05-28T13:08:19.577Z,100781
2016-05-28T13:08:37.859Z,100787
2016-05-28T13:08:56.109Z,100775
2016-05-28T13:09:14.390Z,100781
2016-05-28T13:09:32.658Z,100781
2016-05-28T13:09:50.923Z,100781
2016-05-28T13:10:09.079Z,100770
2016-05-28T13:10:27.363Z,100784
2016-05-28T13:10:45.628Z,100778
2016-05-28T13:11:03.738Z,100778
2016-05-28T13:11:21.991Z,100784
2016-05-28T13:11:40.272Z,100790
2016-05-28T13:11:58.538Z,100784
2016-05-28T13:12:16.806Z,100793
2016-05-28T13:12:34.900Z,100781
2016-05-28T13:12:52.869Z,100781
2016-05-28T13:13:10.978Z,100793
2016-05-28T13:13:29.247Z,100797
2016-05-28T13:13:47.497Z,100784
2016-05-28T13:14:05.778Z,100790
2016-05-28T13:14:23.889Z,100795
2016-05-28T13:14:42.155Z,100793
2016-05-28T13:15:00.421Z,100787
2016-05-28T13:15:18.674Z,100784
2016-05-28T13:15:36.955Z,100795
2016-05-28T13:15:55.064Z,100790
2016-05-28T13:16:13.314Z,100784
2016-05-28T13:16:31.583Z,100792
2016-05-28T13:16:49.864Z,100784
2016-05-28T13:17:07.973Z,100795
2016-05-28T13:17:26.241Z,100790
2016-05-28T13:17:44.725Z,100787
2016-05-28T13:18:02.991Z,100793
2016-05-28T13:18:21.244Z,100784
2016-05-28T13:18:39.353Z,100787
2016-05-28T13:18:57.619Z,100784
2016-05-28T13:19:15.713Z,100789
2016-05-28T13:19:34.730Z,100789
2016-05-28T13:19:51.684Z,100784
2016-05-28T13:20:09.605Z,100787
2016-05-28T13:20:27.391Z,100781
2016-05-28T13:20:45.344Z,100786
2016-05-28T13:21:03.453Z,100784
2016-05-28T13:21:21.721Z,100786
2016-05-28T13:21:39.986Z,100781
2016-05-28T13:21:58.252Z,100786
2016-05-28T13:22:16.502Z,100781
2016-05-28T13:22:37.989Z,100786
2016-05-28T13:22:55.318Z,100781
2016-05-28T13:23:13.568Z,100775
2016-05-28T13:23:31.852Z,100778
2016-05-28T13:23:50.117Z,100775
2016-05-28T13:24:08.383Z,100784
2016-05-28T13:24:26.651Z,100793
2016-05-28T13:24:44.916Z,100790
2016-05-28T13:25:02.885Z,100784
2016-05-28T13:25:21.138Z,100789
2016-05-28T13:25:39.107Z,100781
2016-05-28T13:25:57.372Z,100784
2016-05-28T13:26:15.638Z,100790
2016-05-28T13:26:33.579Z,100781
2016-05-28T13:26:51.844Z,100778
2016-05-28T13:27:10.094Z,100787
2016-05-28T13:27:28.206Z,100784
2016-05-28T13:27:46.518Z,100772
2016-05-28T13:28:04.752Z,100778
2016-05-28T13:28:23.006Z,100781
2016-05-28T13:28:41.288Z,100767
2016-05-28T13:28:59.381Z,100784
2016-05-28T13:29:17.508Z,100769
2016-05-28T13:29:35.774Z,100775
2016-05-28T13:29:54.040Z,100769
2016-05-28T13:30:12.305Z,100778
2016-05-28T13:30:30.418Z,100769
2016-05-28T13:30:48.683Z,100772
2016-05-28T13:31:06.949Z,100772
2016-05-28T13:31:25.076Z,100770
2016-05-28T13:31:43.326Z,100770
2016-05-28T13:32:01.592Z,100773
2016-05-28T13:32:19.579Z,100764
2016-05-28T13:32:40.954Z,100776
2016-05-28T13:32:58.282Z,100770
2016-05-28T13:33:16.548Z,100767
2016-05-28T13:33:34.832Z,100779
2016-05-28T13:33:53.082Z,100776
2016-05-28T13:34:11.363Z,100770
2016-05-28T13:34:29.476Z,100776
2016-05-28T13:34:47.741Z,100778
2016-05-28T13:35:05.866Z,100776
2016-05-28T13:35:23.962Z,100773
2016-05-28T13:35:42.071Z,100781
2016-05-28T13:36:00.353Z,100770
2016-05-28T13:36:18.621Z,100773
2016-05-28T13:36:36.887Z,100778
2016-05-28T13:36:55.152Z,100784
2016-05-28T13:37:13.402Z,100775
2016-05-28T13:37:31.671Z,100778
2016-05-28T13:37:51.218Z,100775
2016-05-28T13:38:09.484Z,100778
2016-05-28T13:38:27.767Z,100775
2016-05-28T13:38:46.032Z,100775
2016-05-28T13:39:04.126Z,100775
2016-05-28T13:39:22.254Z,100784
2016-05-28T13:39:40.504Z,100775
2016-05-28T13:39:58.785Z,100772
2016-05-28T13:40:17.035Z,100778
2016-05-28T13:40:35.303Z,100786
2016-05-28T13:40:53.241Z,100783
2016-05-28T13:41:11.522Z,100792
2016-05-28T13:41:29.775Z,100772
2016-05-28T13:41:48.040Z,100780
2016-05-28T13:42:06.306Z,100766
2016-05-28T13:42:24.559Z,100783
2016-05-28T13:42:43.918Z,100780
2016-05-28T13:43:02.184Z,100783
2016-05-28T13:43:20.453Z,100777
2016-05-28T13:43:38.703Z,100786
2016-05-28T13:43:56.812Z,100771
2016-05-28T13:44:15.109Z,100777
2016-05-28T13:44:33.205Z,100785
2016-05-28T13:44:51.502Z,100774
2016-05-28T13:45:09.736Z,100777
2016-05-28T13:45:28.020Z,100785
2016-05-28T13:45:46.130Z,100782
2016-05-28T13:46:04.411Z,100777
2016-05-28T13:46:22.507Z,100785
2016-05-28T13:46:40.616Z,100782
2016-05-28T13:46:58.882Z,100779
2016-05-28T13:47:16.991Z,100782
2016-05-28T13:47:38.088Z,100779
2016-05-28T13:47:56.791Z,100785
2016-05-28T13:48:15.056Z,100782
2016-05-28T13:48:33.309Z,100774
2016-05-28T13:48:51.591Z,100773
2016-05-28T13:49:09.856Z,100776
2016-05-28T13:49:29.499Z,100782
2016-05-28T13:49:47.686Z,100770
2016-05-28T13:50:05.624Z,100782
2016-05-28T13:50:23.440Z,100782
2016-05-28T13:50:41.534Z,100776
2016-05-28T13:50:59.644Z,100782
2016-05-28T13:51:17.894Z,100770
2016-05-28T13:51:36.005Z,100773
2016-05-28T13:51:54.114Z,100773
2016-05-28T13:52:12.396Z,100776
2016-05-28T13:52:30.664Z,100782
2016-05-28T13:52:49.414Z,100770
2016-05-28T13:53:07.680Z,100767
2016-05-28T13:53:25.947Z,100779
2016-05-28T13:53:44.197Z,100773
2016-05-28T13:54:02.479Z,100779
2016-05-28T13:54:20.732Z,100779
2016-05-28T13:54:38.685Z,100773
2016-05-28T13:54:56.810Z,100779
2016-05-28T13:55:15.060Z,100776
2016-05-28T13:55:33.328Z,100782
2016-05-28T13:55:51.578Z,100773
2016-05-28T13:56:09.844Z,100770
2016-05-28T13:56:28.113Z,100773
2016-05-28T13:56:46.378Z,100773
2016-05-28T13:57:04.628Z,100773
2016-05-28T13:57:22.896Z,100767
2016-05-28T13:57:42.755Z,100770
2016-05-28T13:58:01.005Z,100764
2016-05-28T13:58:19.274Z,100761
2016-05-28T13:58:37.540Z,100759
2016-05-28T13:58:55.649Z,100770
2016-05-28T13:59:13.915Z,100770
2016-05-28T13:59:32.026Z,100764
2016-05-28T13:59:50.292Z,100764
2016-05-28T14:00:08.542Z,100770
2016-05-28T14:00:26.810Z,100759
2016-05-28T14:00:45.076Z,100767
2016-05-28T14:01:03.341Z,100764
2016-05-28T14:01:21.610Z,100761
2016-05-28T14:01:39.876Z,100759
2016-05-28T14:01:58.157Z,100764
2016-05-28T14:02:16.407Z,100762
2016-05-28T14:02:35.488Z,100762
2016-05-28T14:02:52.941Z,100764
2016-05-28T14:03:11.191Z,100770
2016-05-28T14:03:29.474Z,100767
2016-05-28T14:03:47.756Z,100762
2016-05-28T14:04:05.881Z,100767
2016-05-28T14:04:24.743Z,100759
2016-05-28T14:04:42.321Z,100759
2016-05-28T14:05:00.446Z,100762
2016-05-28T14:05:18.399Z,100764
2016-05-28T14:05:36.496Z,100761
2016-05-28T14:05:54.762Z,100756
2016-05-28T14:06:13.027Z,100761
2016-05-28T14:06:31.279Z,100764
2016-05-28T14:06:49.545Z,100759
2016-05-28T14:07:07.654Z,100761
2016-05-28T14:07:25.939Z,100764
2016-05-28T14:07:44.204Z,100759
2016-05-28T14:08:02.314Z,100767
2016-05-28T14:08:20.426Z,100761
2016-05-28T14:08:38.676Z,100756
2016-05-28T14:08:56.942Z,100764
2016-05-28T14:09:15.207Z,100756
2016-05-28T14:09:33.491Z,100767
2016-05-28T14:09:51.757Z,100773
2016-05-28T14:10:09.866Z,100758
2016-05-28T14:10:27.978Z,100755
2016-05-28T14:10:46.087Z,100758
2016-05-28T14:11:04.353Z,100761
2016-05-28T14:11:22.620Z,100761
2016-05-28T14:11:40.902Z,100761
2016-05-28T14:11:59.183Z,100758
2016-05-28T14:12:17.464Z,100755
2016-05-28T14:12:38.843Z,100758
2016-05-28T14:12:56.328Z,100764
2016-05-28T14:13:14.609Z,100758
2016-05-28T14:13:32.876Z,100755
2016-05-28T14:13:51.126Z,100755
2016-05-28T14:14:09.392Z,100758
2016-05-28T14:14:27.676Z,100761
2016-05-28T14:14:45.941Z,100753
2016-05-28T14:15:04.207Z,100753
2016-05-28T14:15:22.514Z,100755
2016-05-28T14:15:40.780Z,100764
2016-05-28T14:15:59.045Z,100750
2016-05-28T14:16:17.295Z,100753
2016-05-28T14:16:35.587Z,100747
2016-05-28T14:16:53.853Z,100758
2016-05-28T14:17:12.118Z,100755
2016-05-28T14:17:30.270Z,100755
2016-05-28T14:17:48.364Z,100770
2016-05-28T14:18:06.645Z,100755
2016-05-28T14:18:24.921Z,100767
2016-05-28T14:18:42.890Z,100758
2016-05-28T14:19:00.999Z,100758
2016-05-28T14:19:19.282Z,100764
2016-05-28T14:19:37.563Z,100753
2016-05-28T14:19:55.673Z,100755
2016-05-28T14:20:13.313Z,100767
2016-05-28T14:20:32.138Z,100747
2016-05-28T14:20:49.544Z,100753
2016-05-28T14:21:07.810Z,100753
2016-05-28T14:21:26.103Z,100750
2016-05-28T14:21:44.197Z,100744
2016-05-28T14:22:02.462Z,100747
2016-05-28T14:22:20.756Z,100747
2016-05-28T14:22:40.412Z,100756
2016-05-28T14:22:58.677Z,100761
2016-05-28T14:23:16.943Z,100755
2016-05-28T14:23:35.267Z,100750
2016-05-28T14:23:53.376Z,100761
2016-05-28T14:24:11.485Z,100758
2016-05-28T14:24:29.758Z,100750
2016-05-28T14:24:48.008Z,100756
2016-05-28T14:25:06.274Z,100753
2016-05-28T14:25:24.545Z,100753
2016-05-28T14:25:42.811Z,100758
2016-05-28T14:26:00.764Z,100753
2016-05-28T14:26:19.014Z,100764
2016-05-28T14:26:37.130Z,100767
2016-05-28T14:26:55.396Z,100764
2016-05-28T14:27:13.662Z,100753
2016-05-28T14:27:33.213Z,100761
2016-05-28T14:27:51.542Z,100756
2016-05-28T14:28:09.792Z,100753
2016-05-28T14:28:28.063Z,100753
2016-05-28T14:28:46.329Z,100750
2016-05-28T14:29:04.594Z,100747
2016-05-28T14:29:22.865Z,100753
2016-05-28T14:29:40.974Z,100756
2016-05-28T14:29:59.084Z,100756
2016-05-28T14:30:17.349Z,100756
2016-05-28T14:30:35.618Z,100761
2016-05-28T14:30:53.743Z,100759
2016-05-28T14:31:11.993Z,100761
2016-05-28T14:31:30.278Z,100767
2016-05-28T14:31:48.544Z,100759
2016-05-28T14:32:06.497Z,100756
2016-05-28T14:32:24.767Z,100767
2016-05-28T14:32:42.720Z,100756
2016-05-28T14:33:00.970Z,100761
2016-05-28T14:33:19.095Z,100753
2016-05-28T14:33:37.363Z,100761
2016-05-28T14:33:55.473Z,100759
2016-05-28T14:34:13.738Z,100759
2016-05-28T14:34:31.883Z,100759
2016-05-28T14:34:50.133Z,100753
2016-05-28T14:35:08.399Z,100762
2016-05-28T14:35:27.245Z,100759
2016-05-28T14:35:45.511Z,100762
2016-05-28T14:36:02.886Z,100750
2016-05-28T14:36:21.155Z,100762
2016-05-28T14:36:39.420Z,100756
2016-05-28T14:36:57.686Z,100756
2016-05-28T14:37:15.952Z,100747
2016-05-28T14:37:35.393Z,100744
2016-05-28T14:37:55.018Z,100759
2016-05-28T14:38:13.284Z,100750
2016-05-28T14:38:31.551Z,100759
2016-05-28T14:38:49.817Z,100747
2016-05-28T14:39:08.083Z,100750
2016-05-28T14:39:26.352Z,100756
2016-05-28T14:39:44.508Z,100739
2016-05-28T14:40:02.774Z,100753
2016-05-28T14:40:21.042Z,100753
2016-05-28T14:40:39.323Z,100747
2016-05-28T14:40:57.604Z,100747
2016-05-28T14:41:15.870Z,100744
2016-05-28T14:41:34.138Z,100756
2016-05-28T14:41:52.263Z,100750
2016-05-28T14:42:10.529Z,100739
2016-05-28T14:42:28.797Z,100756
2016-05-28T14:42:47.062Z,100750
2016-05-28T14:43:05.344Z,100750
2016-05-28T14:43:23.597Z,100742
2016-05-28T14:43:41.878Z,100742
2016-05-28T14:44:00.143Z,100756
2016-05-28T14:44:18.409Z,100753
2016-05-28T14:44:36.677Z,100742
2016-05-28T14:44:54.942Z,100753
2016-05-28T14:45:13.224Z,100745
2016-05-28T14:45:31.337Z,100748
2016-05-28T14:45:49.618Z,100750
2016-05-28T14:46:07.899Z,100750
2016-05-28T14:46:26.183Z,100750
2016-05-28T14:46:44.276Z,100742
2016-05-28T14:47:02.558Z,100747
2016-05-28T14:47:20.842Z,100742
2016-05-28T14:47:39.795Z,100742
2016-05-28T14:47:57.514Z,100733
2016-05-28T14:48:15.779Z,100744
2016-05-28T14:48:34.063Z,100736
2016-05-28T14:48:52.172Z,100736
2016-05-28T14:49:10.453Z,100739
2016-05-28T14:49:28.753Z,100736
2016-05-28T14:49:46.847Z,100741
2016-05-28T14:50:04.972Z,100739
2016-05-28T14:50:23.241Z,100739
2016-05-28T14:50:41.381Z,100733
2016-05-28T14:50:59.678Z,100739
2016-05-28T14:51:17.944Z,100730
2016-05-28T14:51:36.196Z,100733
2016-05-28T14:51:54.461Z,100741
2016-05-28T14:52:12.727Z,100741
2016-05-28T14:52:30.996Z,100736
2016-05-28T14:52:50.558Z,100730
2016-05-28T14:53:08.808Z,100724
2016-05-28T14:53:27.077Z,100727
2016-05-28T14:53:47.389Z,100721
2016-05-28T14:54:04.717Z,100727
2016-05-28T14:54:22.689Z,100733
2016-05-28T14:54:40.955Z,100742
2016-05-28T14:54:59.220Z,100733
2016-05-28T14:55:17.486Z,100733
2016-05-28T14:55:35.754Z,100727
2016-05-28T14:55:54.035Z,100730
2016-05-28T14:56:12.300Z,100736
2016-05-28T14:56:30.569Z,100739
2016-05-28T14:56:48.819Z,100742
2016-05-28T14:57:07.085Z,100724
2016-05-28T14:57:25.353Z,100730
2016-05-28T14:57:43.635Z,100730
2016-05-28T14:58:01.900Z,100724
2016-05-28T14:58:20.181Z,100727
2016-05-28T14:58:38.433Z,100730
2016-05-28T14:58:56.699Z,100724
2016-05-28T14:59:14.965Z,100724
2016-05-28T14:59:33.234Z,100724
2016-05-28T14:59:51.500Z,100719
2016-05-28T15:00:09.766Z,100727
2016-05-28T15:00:28.049Z,100725
2016-05-28T15:00:46.299Z,100719
2016-05-28T15:01:04.580Z,100727
2016-05-28T15:01:22.863Z,100725
2016-05-28T15:01:41.129Z,100730
2016-05-28T15:01:59.395Z,100725
2016-05-28T15:02:17.660Z,100719
2016-05-28T15:02:35.944Z,100719
2016-05-28T15:02:53.741Z,100730
2016-05-28T15:03:12.023Z,100727
2016-05-28T15:03:30.291Z,100722
2016-05-28T15:03:48.572Z,100727
2016-05-28T15:04:06.838Z,100725
2016-05-28T15:04:24.965Z,100730
2016-05-28T15:04:43.074Z,100725
2016-05-28T15:05:01.340Z,100725
2016-05-28T15:05:19.293Z,100727
2016-05-28T15:05:37.421Z,100725
2016-05-28T15:05:55.702Z,100730
2016-05-28T15:06:13.984Z,100722
2016-05-28T15:06:32.096Z,100722
2016-05-28T15:06:50.205Z,100719
2016-05-28T15:07:08.330Z,100722
2016-05-28T15:07:26.474Z,100722
2016-05-28T15:07:46.818Z,100719
2016-05-28T15:08:05.083Z,100725
2016-05-28T15:08:23.351Z,100719
2016-05-28T15:08:41.617Z,100722
2016-05-28T15:08:59.898Z,100719
2016-05-28T15:09:18.179Z,100719
2016-05-28T15:09:36.448Z,100716
2016-05-28T15:09:54.713Z,100716
2016-05-28T15:10:12.995Z,100719
2016-05-28T15:10:31.247Z,100713
2016-05-28T15:10:49.512Z,100727
2016-05-28T15:11:07.622Z,100722
2016-05-28T15:11:25.907Z,100713
2016-05-28T15:11:44.173Z,100727
2016-05-28T15:12:02.423Z,100721
2016-05-28T15:12:20.688Z,100721
2016-05-28T15:12:41.190Z,100719
2016-05-28T15:12:59.456Z,100716
2016-05-28T15:13:17.565Z,100724
2016-05-28T15:13:35.537Z,100719
2016-05-28T15:13:53.803Z,100721
2016-05-28T15:14:12.068Z,100721
2016-05-28T15:14:30.351Z,100719
2016-05-28T15:14:48.633Z,100730
2016-05-28T15:15:06.898Z,100724
2016-05-28T15:15:25.167Z,100721
2016-05-28T15:15:43.433Z,100716
2016-05-28T15:16:01.698Z,100719
2016-05-28T15:16:19.964Z,100716
2016-05-28T15:16:38.232Z,100724
2016-05-28T15:16:56.342Z,100724
2016-05-28T15:17:14.607Z,100724
2016-05-28T15:17:32.859Z,100724
2016-05-28T15:17:51.344Z,100727
2016-05-28T15:18:09.609Z,100727
2016-05-28T15:18:27.862Z,100721
2016-05-28T15:18:46.159Z,100719
2016-05-28T15:19:04.237Z,100727
2016-05-28T15:19:22.506Z,100724
2016-05-28T15:19:40.772Z,100724
2016-05-28T15:19:59.381Z,100718
2016-05-28T15:20:16.990Z,100718
2016-05-28T15:20:35.055Z,100710
2016-05-28T15:20:53.274Z,100716
2016-05-28T15:21:11.524Z,100716
2016-05-28T15:21:29.652Z,100716
2016-05-28T15:21:47.917Z,100718
2016-05-28T15:22:06.027Z,100715
2016-05-28T15:22:24.280Z,100715
2016-05-28T15:22:46.639Z,100721
2016-05-28T15:23:03.967Z,100718
2016-05-28T15:23:22.235Z,100712
2016-05-28T15:23:40.500Z,100718
2016-05-28T15:23:58.625Z,100710
2016-05-28T15:24:16.907Z,100712
2016-05-28T15:24:35.176Z,100712
2016-05-28T15:24:53.129Z,100718
2016-05-28T15:25:11.395Z,100718
2016-05-28T15:25:29.663Z,100715
2016-05-28T15:25:47.913Z,100710
2016-05-28T15:26:06.194Z,100707
2016-05-28T15:26:24.463Z,100712
2016-05-28T15:26:42.713Z,100718
2016-05-28T15:27:00.838Z,100727
2016-05-28T15:27:19.103Z,100718
2016-05-28T15:27:38.887Z,100721
2016-05-28T15:27:56.075Z,100721
2016-05-28T15:28:14.356Z,100710
2016-05-28T15:28:32.624Z,100730
2016-05-28T15:28:50.921Z,100724
2016-05-28T15:29:09.171Z,100707
2016-05-28T15:29:27.439Z,100718
2016-05-28T15:29:45.705Z,100706
2016-05-28T15:30:03.971Z,100718
2016-05-28T15:30:22.236Z,100706
2016-05-28T15:30:40.505Z,100706
2016-05-28T15:30:58.755Z,100704
2016-05-28T15:31:16.880Z,100704
2016-05-28T15:31:35.147Z,100704
2016-05-28T15:31:53.397Z,100701
2016-05-28T15:32:11.507Z,100704
2016-05-28T15:32:29.775Z,100715
2016-05-28T15:32:48.057Z,100706
2016-05-28T15:33:06.150Z,100704
2016-05-28T15:33:24.418Z,100709
2016-05-28T15:33:42.684Z,100712
2016-05-28T15:34:00.949Z,100709
2016-05-28T15:34:19.043Z,100704
2016-05-28T15:34:37.312Z,100698
2016-05-28T15:34:55.577Z,100704
2016-05-28T15:35:13.859Z,100704
2016-05-28T15:35:31.971Z,100701
2016-05-28T15:35:50.096Z,100698
2016-05-28T15:36:08.190Z,100706
2016-05-28T15:36:26.145Z,100704
2016-05-28T15:36:44.410Z,100709
2016-05-28T15:37:02.676Z,100718
2016-05-28T15:37:20.942Z,100710
2016-05-28T15:37:39.633Z,100710
2016-05-28T15:37:57.727Z,100704
2016-05-28T15:38:15.836Z,100704
2016-05-28T15:38:34.104Z,100695
2016-05-28T15:38:52.354Z,100707
2016-05-28T15:39:10.620Z,100707
2016-05-28T15:39:28.888Z,100701
2016-05-28T15:39:46.998Z,100695
2016-05-28T15:40:05.263Z,100698
2016-05-28T15:40:23.529Z,100704
2016-05-28T15:40:41.797Z,100704
2016-05-28T15:41:00.063Z,100704
2016-05-28T15:41:18.329Z,100704
2016-05-28T15:41:36.596Z,100698
2016-05-28T15:41:54.862Z,100701
2016-05-28T15:42:13.128Z,100696
2016-05-28T15:42:31.395Z,100701
2016-05-28T15:42:49.505Z,100701
2016-05-28T15:43:07.614Z,100696
2016-05-28T15:43:25.571Z,100696
2016-05-28T15:43:43.680Z,100701
2016-05-28T15:44:01.946Z,100696
2016-05-28T15:44:20.212Z,100699
2016-05-28T15:44:38.479Z,100701
2016-05-28T15:44:56.745Z,100707
2016-05-28T15:45:15.011Z,100704
2016-05-28T15:45:33.279Z,100704
2016-05-28T15:45:51.545Z,100698
2016-05-28T15:46:09.810Z,100698
2016-05-28T15:46:27.923Z,100701
2016-05-28T15:46:46.188Z,100704
2016-05-28T15:47:04.454Z,100710
2016-05-28T15:47:22.563Z,100695
2016-05-28T15:47:42.503Z,100701
2016-05-28T15:48:00.753Z,100698
2016-05-28T15:48:18.878Z,100698
2016-05-28T15:48:37.162Z,100707
2016-05-28T15:48:55.412Z,100698
2016-05-28T15:49:13.678Z,100690
2016-05-28T15:49:31.789Z,100695
2016-05-28T15:49:50.055Z,100695
2016-05-28T15:50:08.336Z,100690
2016-05-28T15:50:26.137Z,100693
2016-05-28T15:50:44.934Z,100704
2016-05-28T15:51:02.528Z,100692
2016-05-28T15:51:20.793Z,100695
2016-05-28T15:51:39.061Z,100692
2016-05-28T15:51:57.311Z,100695
2016-05-28T15:52:15.592Z,100698
2016-05-28T15:52:34.516Z,100692
2016-05-28T15:52:55.000Z,100698
2016-05-28T15:53:13.110Z,100692
2016-05-28T15:53:31.379Z,100689
2016-05-28T15:53:49.645Z,100692
2016-05-28T15:54:07.911Z,100698
2016-05-28T15:54:26.179Z,100684
2016-05-28T15:54:44.710Z,100692
2016-05-28T15:55:12.226Z,100695
2016-05-28T15:59:44.052Z,100698
2016-05-28T16:00:02.302Z,100687